Time;durP1;ratioP1;P1;durP2;ratioP2;P2;SDS_P1;SDS_P2;PMS_P1;PMS_P2;Temp;Humidity;BMP_temperature;BMP_pressure;BME280_temperature;BME280_humidity;BME280_pressure;Samples;Min_cycle;Max_cycle;Signal;HPM_P1;HPM_P2
2024/03/18 00:00:31;;;;;;;2.50;1.92;;;;;;;;;;5058269;28;20045;-59
2024/03/18 00:02:59;;;;;;;2.40;2.00;;;;;;;;;;5065575;28;20441;-61
2024/03/18 00:05:27;;;;;;;3.35;1.70;;;;;;;;;;5061233;28;20049;-58
2024/03/18 00:07:55;;;;;;;2.72;1.60;;;;;;;;;;5041378;28;20119;-57
2024/03/18 00:10:22;;;;;;;3.60;1.95;;;;;;;;;;5041011;28;20057;-58
2024/03/18 00:12:50;;;;;;;3.83;2.40;;;;;;;;;;5045647;28;20546;-60
2024/03/18 00:15:17;;;;;;;2.33;1.52;;;;;;;;;;5037867;28;20045;-59
2024/03/18 00:17:45;;;;;;;1.85;1.65;;;;;;;;;;5057334;28;20498;-58
2024/03/18 00:20:13;;;;;;;2.00;1.70;;;;;;;;;;5066029;28;20067;-58
2024/03/18 00:22:42;;;;;;;2.10;1.80;;;;;;;;;;5067024;28;20448;-57
2024/03/18 00:25:11;;;;;;;2.50;1.58;;;;;;;;;;5056373;28;20064;-58
2024/03/18 00:27:39;;;;;;;2.53;1.67;;;;;;;;;;5065925;28;20052;-58
2024/03/18 00:30:10;;;;;;;5.05;2.00;;;;;;;;;;5059371;28;20048;-58
2024/03/18 00:32:39;;;;;;;2.42;1.80;;;;;;;;;;5064366;28;20056;-59
2024/03/18 00:35:09;;;;;;;3.03;1.90;;;;;;;;;;5057681;28;20056;-59
2024/03/18 00:37:36;;;;;;;1.73;1.38;;;;;;;;;;5061046;28;20049;-59
2024/03/18 00:40:06;;;;;;;1.75;1.65;;;;;;;;;;5058818;28;20397;-60
2024/03/18 00:42:32;;;;;;;1.90;1.55;;;;;;;;;;5067099;28;20057;-57
2024/03/18 00:45:00;;;;;;;2.88;1.77;;;;;;;;;;5064776;28;20060;-58
2024/03/18 00:47:26;;;;;;;4.60;1.63;;;;;;;;;;5048467;28;20041;-58
2024/03/18 00:49:54;;;;;;;3.05;1.85;;;;;;;;;;5031834;28;20049;-60
2024/03/18 00:52:22;;;;;;;1.40;1.30;;;;;;;;;;5042852;28;20055;-60
2024/03/18 00:54:49;;;;;;;2.88;1.80;;;;;;;;;;5047333;28;20094;-59
2024/03/18 00:57:18;;;;;;;4.20;1.75;;;;;;;;;;5041869;28;20046;-58
2024/03/18 00:59:45;;;;;;;3.08;1.52;;;;;;;;;;5052311;28;20053;-58
2024/03/18 01:02:13;;;;;;;2.63;1.52;;;;;;;;;;5039252;28;20580;-59
2024/03/18 01:04:39;;;;;;;2.97;1.67;;;;;;;;;;5037092;28;20055;-61
2024/03/18 01:07:06;;;;;;;5.72;1.55;;;;;;;;;;5036582;28;20045;-60
2024/03/18 01:09:36;;;;;;;1.63;1.50;;;;;;;;;;5031719;28;20049;-58
2024/03/18 01:12:04;;;;;;;2.58;1.52;;;;;;;;;;5041176;28;20045;-58
2024/03/18 01:14:33;;;;;;;2.28;1.23;;;;;;;;;;5042316;28;20486;-58
2024/03/18 01:17:00;;;;;;;2.45;1.50;;;;;;;;;;5062059;28;20045;-61
2024/03/18 01:19:28;;;;;;;2.00;1.50;;;;;;;;;;5047295;28;20391;-59
2024/03/18 01:21:56;;;;;;;1.67;1.40;;;;;;;;;;5048619;28;20053;-58
2024/03/18 01:24:23;;;;;;;4.30;1.60;;;;;;;;;;5047941;28;20056;-57
2024/03/18 01:26:51;;;;;;;1.70;1.20;;;;;;;;;;5043058;28;20451;-58
2024/03/18 01:29:18;;;;;;;3.40;1.60;;;;;;;;;;5045001;28;20060;-58
2024/03/18 01:31:48;;;;;;;2.33;1.63;;;;;;;;;;5041024;28;20053;-59
2024/03/18 01:34:15;;;;;;;1.42;1.33;;;;;;;;;;5046095;28;20053;-59
2024/03/18 01:36:43;;;;;;;1.63;1.33;;;;;;;;;;5038717;28;20053;-58
2024/03/18 01:39:16;;;;;;;4.25;1.60;;;;;;;;;;5050570;28;20041;-59
2024/03/18 01:41:44;;;;;;;2.00;1.40;;;;;;;;;;5047197;28;20056;-58
2024/03/18 01:44:11;;;;;;;2.63;1.50;;;;;;;;;;5041065;28;20220;-59
2024/03/18 01:46:38;;;;;;;3.47;1.40;;;;;;;;;;5048075;28;20441;-59
2024/03/18 01:49:07;;;;;;;2.45;1.27;;;;;;;;;;5042065;28;20107;-57
2024/03/18 01:51:35;;;;;;;3.95;1.38;;;;;;;;;;5049856;28;20044;-58
2024/03/18 01:54:03;;;;;;;1.65;1.20;;;;;;;;;;5042725;28;20049;-60
2024/03/18 01:56:30;;;;;;;1.52;1.40;;;;;;;;;;5042577;28;20048;-59
2024/03/18 01:59:04;;;;;;;2.17;1.00;;;;;;;;;;5070481;28;20086;-58
2024/03/18 02:01:32;;;;;;;1.70;1.40;;;;;;;;;;5053504;28;20053;-57
2024/03/18 02:04:09;;;;;;;3.95;1.55;;;;;;;;;;5066059;28;20053;-57
2024/03/18 02:06:38;;;;;;;1.83;1.20;;;;;;;;;;5060138;28;20040;-58
2024/03/18 02:09:06;;;;;;;1.88;1.08;;;;;;;;;;5069453;28;20056;-63
2024/03/18 02:11:34;;;;;;;2.08;1.00;;;;;;;;;;5064302;28;20056;-58
2024/03/18 02:14:01;;;;;;;2.50;1.00;;;;;;;;;;5061855;28;20053;-58
2024/03/18 02:16:29;;;;;;;1.20;1.00;;;;;;;;;;5060835;28;20475;-58
2024/03/18 02:18:56;;;;;;;1.05;0.80;;;;;;;;;;5068984;28;20049;-59
2024/03/18 02:21:25;;;;;;;3.17;1.00;;;;;;;;;;5060420;28;20048;-61
2024/03/18 02:23:54;;;;;;;2.40;0.95;;;;;;;;;;5067110;28;20045;-58
2024/03/18 02:26:21;;;;;;;2.45;0.98;;;;;;;;;;5065635;28;20048;-58
2024/03/18 02:28:50;;;;;;;0.60;0.60;;;;;;;;;;5069038;28;20563;-57
2024/03/18 02:31:17;;;;;;;2.10;0.80;;;;;;;;;;5065078;28;20056;-59
2024/03/18 02:33:44;;;;;;;1.15;0.73;;;;;;;;;;5061137;28;20128;-58
2024/03/18 02:36:12;;;;;;;1.55;0.90;;;;;;;;;;5065223;28;20060;-58
2024/03/18 02:38:39;;;;;;;0.85;0.70;;;;;;;;;;5068581;28;20052;-58
2024/03/18 02:41:08;;;;;;;1.10;0.75;;;;;;;;;;5066184;28;20063;-61
2024/03/18 02:43:36;;;;;;;2.15;1.02;;;;;;;;;;5061214;28;20052;-58
2024/03/18 02:46:04;;;;;;;1.10;0.77;;;;;;;;;;5058115;28;20160;-59
2024/03/18 02:48:32;;;;;;;1.00;0.90;;;;;;;;;;5048033;28;20130;-58
2024/03/18 02:50:59;;;;;;;1.35;1.00;;;;;;;;;;5045258;28;20128;-58
2024/03/18 02:53:27;;;;;;;0.90;0.80;;;;;;;;;;5049606;28;20057;-57
2024/03/18 02:55:55;;;;;;;1.00;0.90;;;;;;;;;;5045156;28;20056;-59
2024/03/18 02:58:24;;;;;;;3.45;0.98;;;;;;;;;;5040251;28;20045;-59
2024/03/18 03:00:52;;;;;;;1.77;0.90;;;;;;;;;;5047556;28;20110;-60
2024/03/18 03:03:19;;;;;;;1.95;1.20;;;;;;;;;;5049338;28;20067;-58
2024/03/18 03:05:47;;;;;;;1.08;0.90;;;;;;;;;;5044819;28;20319;-59
2024/03/18 03:08:16;;;;;;;0.90;0.80;;;;;;;;;;5042901;28;20045;-59
2024/03/18 03:10:43;;;;;;;0.75;0.70;;;;;;;;;;5063117;28;20049;-59
2024/03/18 03:13:11;;;;;;;1.10;0.82;;;;;;;;;;5036082;28;20057;-60
2024/03/18 03:15:39;;;;;;;1.27;0.80;;;;;;;;;;5046166;28;20045;-60
2024/03/18 03:18:07;;;;;;;3.15;1.13;;;;;;;;;;5044153;28;20483;-58
2024/03/18 03:20:35;;;;;;;0.70;0.70;;;;;;;;;;5045760;28;20049;-62
2024/03/18 03:23:02;;;;;;;1.13;0.85;;;;;;;;;;5044706;28;20041;-59
2024/03/18 03:25:29;;;;;;;1.05;0.70;;;;;;;;;;5046328;28;20406;-59
2024/03/18 03:27:58;;;;;;;0.70;0.70;;;;;;;;;;5041310;28;20560;-59
2024/03/18 03:30:26;;;;;;;1.98;1.20;;;;;;;;;;5057720;28;20053;-58
2024/03/18 03:32:54;;;;;;;1.00;0.77;;;;;;;;;;5041297;28;20130;-59
2024/03/18 03:35:22;;;;;;;1.00;0.80;;;;;;;;;;5046914;28;20118;-59
2024/03/18 03:37:49;;;;;;;0.85;0.73;;;;;;;;;;5037611;28;20465;-58
2024/03/18 03:40:16;;;;;;;0.93;0.70;;;;;;;;;;5041428;28;20060;-60
2024/03/18 03:42:44;;;;;;;5.35;1.20;;;;;;;;;;5041706;28;20600;-59
2024/03/18 03:45:12;;;;;;;2.25;0.80;;;;;;;;;;5045022;28;20056;-58
2024/03/18 03:47:39;;;;;;;1.58;0.80;;;;;;;;;;5038852;28;20053;-59
2024/03/18 03:50:09;;;;;;;2.40;0.90;;;;;;;;;;5040686;28;20049;-59
2024/03/18 03:52:37;;;;;;;0.85;0.65;;;;;;;;;;5041811;28;20053;-59
2024/03/18 03:55:05;;;;;;;0.73;0.63;;;;;;;;;;5043231;28;20071;-58
2024/03/18 03:57:32;;;;;;;2.75;0.98;;;;;;;;;;5055434;28;20052;-57
2024/03/18 03:59:59;;;;;;;0.82;0.77;;;;;;;;;;5035567;28;20049;-57
2024/03/18 04:02:27;;;;;;;2.15;0.68;;;;;;;;;;5040294;28;20103;-58
2024/03/18 04:04:55;;;;;;;1.75;0.70;;;;;;;;;;5046050;28;20055;-59
2024/03/18 04:07:26;;;;;;;1.05;1.00;;;;;;;;;;5042109;28;20065;-59
2024/03/18 04:09:53;;;;;;;1.17;0.80;;;;;;;;;;5044038;28;20057;-58
2024/03/18 04:12:20;;;;;;;1.10;0.75;;;;;;;;;;5046573;28;20110;-58
2024/03/18 04:14:49;;;;;;;1.90;0.80;;;;;;;;;;5047521;28;20068;-58
2024/03/18 04:17:17;;;;;;;0.50;0.50;;;;;;;;;;5037868;28;20042;-58
2024/03/18 04:19:45;;;;;;;2.08;0.80;;;;;;;;;;5032627;28;20066;-61
2024/03/18 04:22:12;;;;;;;0.90;0.65;;;;;;;;;;5039878;28;20103;-58
2024/03/18 04:24:41;;;;;;;0.70;0.60;;;;;;;;;;5039587;28;20150;-58
2024/03/18 04:27:08;;;;;;;1.08;0.90;;;;;;;;;;5043590;28;20582;-60
2024/03/18 04:29:36;;;;;;;0.70;0.70;;;;;;;;;;5043965;28;20044;-59
2024/03/18 04:32:05;;;;;;;1.55;0.90;;;;;;;;;;5046368;28;20333;-63
2024/03/18 04:34:33;;;;;;;0.77;0.70;;;;;;;;;;5040780;28;20056;-58
2024/03/18 04:37:00;;;;;;;2.83;0.90;;;;;;;;;;5052378;28;20057;-59
2024/03/18 04:39:28;;;;;;;1.08;0.80;;;;;;;;;;5057330;28;20074;-58
2024/03/18 04:41:56;;;;;;;0.55;0.55;;;;;;;;;;5066414;28;20109;-59
2024/03/18 04:44:24;;;;;;;0.75;0.75;;;;;;;;;;5057293;28;20056;-59
2024/03/18 04:46:51;;;;;;;1.05;0.73;;;;;;;;;;5055425;28;20055;-58
2024/03/18 04:49:19;;;;;;;0.82;0.68;;;;;;;;;;5043708;28;20151;-58
2024/03/18 04:51:46;;;;;;;1.95;0.70;;;;;;;;;;5040779;28;20053;-59
2024/03/18 04:54:14;;;;;;;2.50;0.77;;;;;;;;;;5039963;28;20072;-58
2024/03/18 04:56:41;;;;;;;0.98;0.88;;;;;;;;;;5029107;28;20045;-60
2024/03/18 04:59:10;;;;;;;1.08;0.77;;;;;;;;;;5046616;28;20048;-62
2024/03/18 05:01:37;;;;;;;0.55;0.55;;;;;;;;;;5042307;28;20079;-59
2024/03/18 05:04:05;;;;;;;1.02;0.90;;;;;;;;;;5039163;28;20501;-58
2024/03/18 05:06:32;;;;;;;0.82;0.70;;;;;;;;;;5045510;28;20406;-61
2024/03/18 05:09:00;;;;;;;0.77;0.60;;;;;;;;;;5044618;28;20049;-60
2024/03/18 05:11:27;;;;;;;2.05;0.80;;;;;;;;;;5041595;28;20052;-60
2024/03/18 05:13:55;;;;;;;0.95;0.57;;;;;;;;;;5051099;28;20049;-59
2024/03/18 05:16:27;;;;;;;2.05;0.85;;;;;;;;;;5047897;28;20036;-60
2024/03/18 05:18:54;;;;;;;1.10;0.98;;;;;;;;;;5052488;28;20080;-58
2024/03/18 05:21:22;;;;;;;0.80;0.75;;;;;;;;;;5049150;28;20121;-58
2024/03/18 05:23:49;;;;;;;0.93;0.75;;;;;;;;;;5038923;28;20065;-60
2024/03/18 05:26:17;;;;;;;3.05;0.82;;;;;;;;;;5036952;28;20395;-59
2024/03/18 05:28:44;;;;;;;2.03;1.17;;;;;;;;;;5066285;28;20072;-58
2024/03/18 05:31:12;;;;;;;0.90;0.70;;;;;;;;;;5069956;28;20049;-58
2024/03/18 05:33:41;;;;;;;0.68;0.63;;;;;;;;;;5062907;28;20552;-59
2024/03/18 05:36:08;;;;;;;1.60;0.70;;;;;;;;;;5069301;28;20279;-59
2024/03/18 05:38:36;;;;;;;1.00;0.80;;;;;;;;;;5064542;28;20053;-58
2024/03/18 05:41:04;;;;;;;1.88;0.75;;;;;;;;;;5064774;28;20056;-58
2024/03/18 05:43:32;;;;;;;2.17;0.75;;;;;;;;;;5070614;28;20064;-57
2024/03/18 05:45:59;;;;;;;0.73;0.73;;;;;;;;;;5058970;28;20061;-60
2024/03/18 05:48:27;;;;;;;1.05;0.95;;;;;;;;;;5038302;28;20852;-59
2024/03/18 05:50:56;;;;;;;0.70;0.70;;;;;;;;;;5048932;28;20058;-58
2024/03/18 05:53:23;;;;;;;3.00;0.80;;;;;;;;;;5041519;28;20041;-58
2024/03/18 05:55:51;;;;;;;1.05;0.90;;;;;;;;;;5045210;28;20137;-58
2024/03/18 05:58:19;;;;;;;1.23;1.05;;;;;;;;;;5047707;28;20482;-59
2024/03/18 06:00:46;;;;;;;1.13;0.82;;;;;;;;;;5042512;28;20111;-59
2024/03/18 06:03:13;;;;;;;1.88;0.80;;;;;;;;;;5060144;28;20053;-61
2024/03/18 06:05:42;;;;;;;1.30;0.70;;;;;;;;;;5046741;28;20052;-57
2024/03/18 06:08:10;;;;;;;1.45;0.80;;;;;;;;;;5047041;28;20386;-59
2024/03/18 06:10:38;;;;;;;0.60;0.60;;;;;;;;;;5064200;28;20056;-60
2024/03/18 06:13:05;;;;;;;1.20;0.70;;;;;;;;;;5054108;28;20052;-60
2024/03/18 06:15:33;;;;;;;1.55;0.75;;;;;;;;;;5046692;28;20497;-59
2024/03/18 06:18:00;;;;;;;1.40;0.88;;;;;;;;;;5059912;28;20045;-59
2024/03/18 06:20:27;;;;;;;3.13;0.80;;;;;;;;;;5063495;28;20517;-58
2024/03/18 06:22:56;;;;;;;1.10;0.70;;;;;;;;;;5058420;28;20061;-58
2024/03/18 06:28:10;;;;;;;1.38;0.80;;;;;;;;;;5037185;28;20041;-59
2024/03/18 06:30:38;;;;;;;1.85;0.93;;;;;;;;;;5054435;28;20049;-58
2024/03/18 06:33:05;;;;;;;4.25;0.73;;;;;;;;;;5060305;28;20083;-59
2024/03/18 06:35:33;;;;;;;1.50;1.15;;;;;;;;;;5049876;28;20056;-58
2024/03/18 06:38:00;;;;;;;3.58;0.70;;;;;;;;;;5048622;28;20033;-59
2024/03/18 06:40:29;;;;;;;1.45;0.77;;;;;;;;;;5049140;28;20049;-59
2024/03/18 06:42:56;;;;;;;1.15;0.75;;;;;;;;;;5049615;28;20048;-58
2024/03/18 06:45:25;;;;;;;1.40;0.95;;;;;;;;;;5052224;28;20056;-59
2024/03/18 06:47:52;;;;;;;1.80;0.90;;;;;;;;;;5043877;28;20391;-58
2024/03/18 06:50:20;;;;;;;1.10;0.80;;;;;;;;;;5042611;28;20053;-59
2024/03/18 06:52:47;;;;;;;2.20;1.15;;;;;;;;;;5063476;28;20045;-60
2024/03/18 06:55:15;;;;;;;1.17;1.00;;;;;;;;;;5066095;28;20049;-59
2024/03/18 06:57:43;;;;;;;3.17;0.90;;;;;;;;;;5053632;28;20040;-58
2024/03/18 07:00:11;;;;;;;1.40;0.90;;;;;;;;;;5063074;28;20052;-58
2024/03/18 07:02:39;;;;;;;1.00;0.95;;;;;;;;;;5043516;28;20083;-60
2024/03/18 07:05:07;;;;;;;1.40;0.90;;;;;;;;;;5061635;28;20048;-64
2024/03/18 07:07:34;;;;;;;5.32;1.10;;;;;;;;;;5069560;28;20469;-62
2024/03/18 07:10:02;;;;;;;2.35;0.80;;;;;;;;;;5043159;28;20052;-58
2024/03/18 07:12:29;;;;;;;0.88;0.82;;;;;;;;;;5051152;28;20057;-58
2024/03/18 07:14:58;;;;;;;0.80;0.70;;;;;;;;;;5049518;28;20098;-60
2024/03/18 07:17:26;;;;;;;3.10;0.90;;;;;;;;;;5063777;28;20041;-59
2024/03/18 07:19:53;;;;;;;1.13;0.93;;;;;;;;;;5051063;28;20057;-58
2024/03/18 07:22:20;;;;;;;2.72;0.82;;;;;;;;;;5068026;28;20430;-60
2024/03/18 07:24:48;;;;;;;1.42;0.80;;;;;;;;;;5069660;28;20048;-58
2024/03/18 07:27:15;;;;;;;1.55;0.98;;;;;;;;;;5067621;28;20520;-61
2024/03/18 07:29:43;;;;;;;1.92;0.93;;;;;;;;;;5052881;28;20076;-61
2024/03/18 07:32:12;;;;;;;1.02;0.77;;;;;;;;;;5038878;28;20049;-61
2024/03/18 07:34:40;;;;;;;1.40;0.75;;;;;;;;;;5049033;28;20402;-59
2024/03/18 07:37:07;;;;;;;1.73;0.75;;;;;;;;;;5067106;28;20051;-58
2024/03/18 07:39:34;;;;;;;4.72;1.08;;;;;;;;;;5048829;28;20082;-57
2024/03/18 07:42:02;;;;;;;2.25;1.17;;;;;;;;;;5059857;28;20045;-59
2024/03/18 07:44:29;;;;;;;0.90;0.80;;;;;;;;;;5048526;28;20049;-63
2024/03/18 07:46:57;;;;;;;1.77;0.88;;;;;;;;;;5054628;28;20063;-61
2024/03/18 07:49:26;;;;;;;1.15;0.80;;;;;;;;;;5042203;28;20052;-59
2024/03/18 07:51:53;;;;;;;1.13;0.98;;;;;;;;;;5037249;28;20057;-58
2024/03/18 07:54:20;;;;;;;0.95;0.77;;;;;;;;;;5041770;28;20041;-62
2024/03/18 07:56:48;;;;;;;1.00;0.73;;;;;;;;;;5053105;28;20051;-59
2024/03/18 07:59:15;;;;;;;0.88;0.80;;;;;;;;;;5055871;28;20464;-59
2024/03/18 08:01:43;;;;;;;1.13;0.80;;;;;;;;;;5043031;28;20045;-58
2024/03/18 08:04:10;;;;;;;1.77;0.80;;;;;;;;;;5048248;28;20083;-58
2024/03/18 08:06:44;;;;;;;0.70;0.70;;;;;;;;;;5043973;28;20501;-59
2024/03/18 08:09:11;;;;;;;1.38;0.70;;;;;;;;;;5053341;28;20048;-60
2024/03/18 08:11:39;;;;;;;2.33;0.70;;;;;;;;;;5048593;28;20053;-59
2024/03/18 08:14:06;;;;;;;0.82;0.65;;;;;;;;;;5048944;28;20549;-59
2024/03/18 08:16:34;;;;;;;0.63;0.47;;;;;;;;;;5056623;28;20575;-58
2024/03/18 08:19:03;;;;;;;1.25;0.70;;;;;;;;;;5062128;28;20075;-60
2024/03/18 08:21:30;;;;;;;1.35;0.80;;;;;;;;;;5072325;28;20493;-59
2024/03/18 08:23:59;;;;;;;0.65;0.65;;;;;;;;;;5081088;28;20064;-58
2024/03/18 08:26:28;;;;;;;2.28;0.73;;;;;;;;;;5072538;28;20036;-58
2024/03/18 08:28:55;;;;;;;0.90;0.70;;;;;;;;;;5069693;28;20394;-61
2024/03/18 08:31:22;;;;;;;1.83;0.82;;;;;;;;;;5067667;28;20060;-58
2024/03/18 08:33:50;;;;;;;3.08;0.85;;;;;;;;;;5070182;28;20071;-60
2024/03/18 08:36:17;;;;;;;2.97;0.95;;;;;;;;;;5066269;28;20053;-59
2024/03/18 08:38:45;;;;;;;0.80;0.68;;;;;;;;;;5067169;28;20079;-59
2024/03/18 08:41:14;;;;;;;2.05;0.80;;;;;;;;;;5066654;28;20417;-58
2024/03/18 08:43:41;;;;;;;1.10;0.75;;;;;;;;;;5066960;28;20198;-58
2024/03/18 08:46:10;;;;;;;0.70;0.70;;;;;;;;;;5064816;28;20517;-58
2024/03/18 08:48:37;;;;;;;2.53;0.80;;;;;;;;;;5065419;28;21622;-58
2024/03/18 08:51:05;;;;;;;6.47;1.00;;;;;;;;;;5066606;28;20389;-58
2024/03/18 08:53:32;;;;;;;2.10;0.77;;;;;;;;;;5067481;28;20068;-60
2024/03/18 08:56:00;;;;;;;2.13;0.65;;;;;;;;;;5067498;28;20057;-59
2024/03/18 08:58:29;;;;;;;1.85;0.88;;;;;;;;;;5067437;28;20060;-59
2024/03/18 09:00:55;;;;;;;0.77;0.60;;;;;;;;;;5059851;28;20052;-61
2024/03/18 09:03:23;;;;;;;3.90;0.90;;;;;;;;;;5063211;28;20060;-60
2024/03/18 09:05:55;;;;;;;0.75;0.60;;;;;;;;;;5065589;28;20205;-58
2024/03/18 09:08:23;;;;;;;1.00;0.77;;;;;;;;;;5066717;28;20044;-58
2024/03/18 09:10:50;;;;;;;1.33;0.85;;;;;;;;;;5066962;28;20048;-58
2024/03/18 09:13:18;;;;;;;0.60;0.60;;;;;;;;;;5060724;28;20037;-61
2024/03/18 09:15:46;;;;;;;1.00;0.80;;;;;;;;;;5066343;28;20048;-58
2024/03/18 09:18:14;;;;;;;3.03;0.80;;;;;;;;;;5058805;28;20268;-59
2024/03/18 09:20:41;;;;;;;3.97;0.90;;;;;;;;;;5042091;28;20513;-58
2024/03/18 09:23:09;;;;;;;1.25;0.70;;;;;;;;;;5048358;28;20107;-58
2024/03/18 09:25:36;;;;;;;0.90;0.80;;;;;;;;;;5047420;28;20060;-59
2024/03/18 09:28:04;;;;;;;0.65;0.63;;;;;;;;;;5063608;28;20053;-58
2024/03/18 09:30:32;;;;;;;2.70;0.80;;;;;;;;;;5050980;28;20497;-57
2024/03/18 09:33:01;;;;;;;1.63;0.90;;;;;;;;;;5056464;28;20052;-60
2024/03/18 09:35:28;;;;;;;1.00;0.70;;;;;;;;;;5054253;28;20045;-59
2024/03/18 09:37:56;;;;;;;0.60;0.60;;;;;;;;;;5062113;28;20468;-59
2024/03/18 09:40:26;;;;;;;3.50;0.82;;;;;;;;;;5065770;28;20071;-58
2024/03/18 09:42:53;;;;;;;2.38;0.77;;;;;;;;;;5066031;28;20152;-59
2024/03/18 09:45:22;;;;;;;1.48;0.80;;;;;;;;;;5066077;28;20551;-60
2024/03/18 09:47:50;;;;;;;1.40;0.65;;;;;;;;;;5069464;28;20052;-58
2024/03/18 09:50:19;;;;;;;0.93;0.70;;;;;;;;;;5066327;28;20047;-60
2024/03/18 09:52:48;;;;;;;1.30;0.70;;;;;;;;;;5069195;28;20056;-59
2024/03/18 09:55:22;;;;;;;3.17;0.80;;;;;;;;;;5079551;28;20060;-59
2024/03/18 09:57:50;;;;;;;3.38;0.75;;;;;;;;;;5063666;28;20049;-60
2024/03/18 10:00:19;;;;;;;1.80;0.80;;;;;;;;;;5069850;28;20052;-61
2024/03/18 10:02:46;;;;;;;1.02;0.77;;;;;;;;;;5069725;28;20041;-59
2024/03/18 10:05:14;;;;;;;1.13;0.60;;;;;;;;;;5066786;28;20055;-59
2024/03/18 10:07:45;;;;;;;2.20;0.70;;;;;;;;;;5066538;28;20094;-59
2024/03/18 10:10:16;;;;;;;2.00;0.60;;;;;;;;;;5069342;28;20037;-58
2024/03/18 10:12:44;;;;;;;4.75;0.95;;;;;;;;;;5070236;28;20504;-58
2024/03/18 10:15:13;;;;;;;0.95;0.75;;;;;;;;;;5069734;28;20044;-62
2024/03/18 10:17:42;;;;;;;0.75;0.50;;;;;;;;;;5069231;28;20051;-59
2024/03/18 10:20:20;;;;;;;2.38;0.60;;;;;;;;;;5061070;28;20053;-59
2024/03/18 10:22:51;;;;;;;1.55;0.80;;;;;;;;;;5069897;28;20512;-58
2024/03/18 10:25:22;;;;;;;1.90;0.93;;;;;;;;;;5067126;28;20052;-59
2024/03/18 10:27:49;;;;;;;2.47;0.90;;;;;;;;;;5062963;28;20488;-59
2024/03/18 10:30:17;;;;;;;1.83;0.80;;;;;;;;;;5070577;28;20429;-59
2024/03/18 10:32:45;;;;;;;1.92;0.85;;;;;;;;;;5070620;28;20060;-59
2024/03/18 10:35:19;;;;;;;0.90;0.80;;;;;;;;;;5070973;28;20056;-59
2024/03/18 10:37:54;;;;;;;2.58;1.00;;;;;;;;;;5065867;28;20094;-58
2024/03/18 10:40:30;;;;;;;0.88;0.80;;;;;;;;;;5069569;28;20052;-61
2024/03/18 10:43:01;;;;;;;3.15;0.95;;;;;;;;;;5070399;28;20056;-61
2024/03/18 10:45:31;;;;;;;1.25;0.65;;;;;;;;;;5071404;28;20052;-58
2024/03/18 10:48:00;;;;;;;1.70;0.75;;;;;;;;;;5051231;28;20517;-58
2024/03/18 10:50:27;;;;;;;0.65;0.63;;;;;;;;;;5044460;28;20076;-60
2024/03/18 10:52:56;;;;;;;1.55;0.93;;;;;;;;;;5053502;28;20461;-58
2024/03/18 10:55:26;;;;;;;2.58;0.80;;;;;;;;;;5047914;28;20053;-60
2024/03/18 10:57:54;;;;;;;3.17;0.90;;;;;;;;;;5046546;28;20094;-58
2024/03/18 11:00:22;;;;;;;1.33;0.70;;;;;;;;;;5053465;28;20052;-59
2024/03/18 11:03:00;;;;;;;2.75;0.90;;;;;;;;;;5057034;28;20516;-58
2024/03/18 11:05:28;;;;;;;1.33;0.95;;;;;;;;;;5045871;28;20052;-58
2024/03/18 11:07:59;;;;;;;1.48;0.75;;;;;;;;;;5052711;28;20052;-59
2024/03/18 11:10:28;;;;;;;4.05;0.85;;;;;;;;;;5045487;28;20056;-60
2024/03/18 11:12:56;;;;;;;0.95;0.70;;;;;;;;;;5052438;28;20048;-58
2024/03/18 11:15:28;;;;;;;4.32;0.93;;;;;;;;;;5052100;28;20052;-58
2024/03/18 11:17:55;;;;;;;1.27;0.90;;;;;;;;;;5051403;28;20451;-60
2024/03/18 11:20:23;;;;;;;1.65;0.90;;;;;;;;;;5045450;28;20064;-57
2024/03/18 11:22:56;;;;;;;1.75;0.98;;;;;;;;;;5044145;28;20057;-57
2024/03/18 11:25:26;;;;;;;3.40;0.95;;;;;;;;;;5055566;28;20060;-57
2024/03/18 11:27:54;;;;;;;3.92;1.08;;;;;;;;;;5062996;28;20433;-59
2024/03/18 11:30:33;;;;;;;1.73;1.00;;;;;;;;;;5062736;28;20053;-60
2024/03/18 11:33:09;;;;;;;3.22;1.08;;;;;;;;;;5066844;28;20052;-57
2024/03/18 11:35:37;;;;;;;2.40;0.82;;;;;;;;;;5070882;28;20402;-57
2024/03/18 11:38:06;;;;;;;0.73;0.70;;;;;;;;;;5060762;28;20382;-58
2024/03/18 11:40:38;;;;;;;2.65;0.80;;;;;;;;;;5062332;28;20059;-59
2024/03/18 11:43:05;;;;;;;2.13;0.90;;;;;;;;;;5072638;28;20049;-61
2024/03/18 11:45:33;;;;;;;2.63;0.70;;;;;;;;;;5066952;28;20048;-58
2024/03/18 11:48:02;;;;;;;0.75;0.70;;;;;;;;;;5064679;28;20041;-57
2024/03/18 11:50:30;;;;;;;1.90;0.80;;;;;;;;;;5066646;28;20064;-59
2024/03/18 11:52:59;;;;;;;0.90;0.85;;;;;;;;;;5072108;28;20074;-58
2024/03/18 11:55:26;;;;;;;3.17;0.90;;;;;;;;;;5064040;28;20408;-60
2024/03/18 11:57:57;;;;;;;3.13;0.90;;;;;;;;;;5063644;28;20766;-57
2024/03/18 12:00:24;;;;;;;2.22;1.02;;;;;;;;;;5060738;28;20067;-59
2024/03/18 12:02:53;;;;;;;2.55;1.20;;;;;;;;;;5080188;28;20048;-59
2024/03/18 12:05:21;;;;;;;1.83;1.05;;;;;;;;;;5062731;28;20053;-58
2024/03/18 12:07:48;;;;;;;3.10;1.00;;;;;;;;;;5066935;28;20044;-58
2024/03/18 12:10:19;;;;;;;2.03;1.08;;;;;;;;;;5075335;28;20370;-59
2024/03/18 12:12:47;;;;;;;3.28;0.90;;;;;;;;;;5067702;28;20166;-57
2024/03/18 12:15:16;;;;;;;1.48;0.63;;;;;;;;;;5068244;28;20452;-59
2024/03/18 12:17:44;;;;;;;2.03;1.27;;;;;;;;;;5066385;28;20478;-57
2024/03/18 12:20:24;;;;;;;2.83;1.40;;;;;;;;;;5065547;28;20409;-58
2024/03/18 12:22:59;;;;;;;3.25;1.05;;;;;;;;;;5064294;28;20421;-60
2024/03/18 12:30:58;;;;;;;1.23;1.10;;;;;;;;;;5067814;28;19924;-57
2024/03/18 12:33:26;;;;;;;2.88;1.13;;;;;;;;;;5067838;28;20056;-57
2024/03/18 12:35:53;;;;;;;2.00;1.17;;;;;;;;;;5064912;28;20056;-58
2024/03/18 12:38:21;;;;;;;1.27;1.10;;;;;;;;;;5066596;28;20489;-58
2024/03/18 12:40:49;;;;;;;1.30;0.93;;;;;;;;;;5067338;28;20041;-60
2024/03/18 12:43:16;;;;;;;2.50;1.40;;;;;;;;;;5067809;28;20048;-58
2024/03/18 12:45:44;;;;;;;1.60;1.17;;;;;;;;;;5067804;28;20137;-59
2024/03/18 12:48:12;;;;;;;2.95;1.17;;;;;;;;;;5067077;28;20086;-58
2024/03/18 12:50:39;;;;;;;1.95;1.40;;;;;;;;;;5063786;28;20049;-58
2024/03/18 12:53:11;;;;;;;2.05;1.20;;;;;;;;;;5065928;28;20128;-59
2024/03/18 12:55:39;;;;;;;3.95;1.30;;;;;;;;;;5065864;28;20044;-58
2024/03/18 12:58:06;;;;;;;3.33;1.45;;;;;;;;;;5066354;28;20485;-57
2024/03/18 13:00:34;;;;;;;2.50;1.45;;;;;;;;;;5067575;28;20053;-57
2024/03/18 13:03:02;;;;;;;1.35;1.25;;;;;;;;;;5066674;28;20454;-59
2024/03/18 13:05:32;;;;;;;1.77;1.23;;;;;;;;;;5065527;28;20049;-58
2024/03/18 13:08:00;;;;;;;2.55;1.40;;;;;;;;;;5061495;28;20044;-59
2024/03/18 13:10:29;;;;;;;4.00;1.35;;;;;;;;;;5066006;28;20539;-57
2024/03/18 13:12:58;;;;;;;2.00;1.17;;;;;;;;;;5066992;28;20088;-58
2024/03/18 13:15:26;;;;;;;1.85;1.52;;;;;;;;;;5066267;28;20712;-59
2024/03/18 13:17:54;;;;;;;2.10;1.50;;;;;;;;;;5065761;28;20406;-60
2024/03/18 13:20:21;;;;;;;2.83;1.58;;;;;;;;;;5066212;28;20071;-58
2024/03/18 13:22:50;;;;;;;2.58;1.65;;;;;;;;;;5066595;28;20056;-58
2024/03/18 13:25:17;;;;;;;2.25;1.20;;;;;;;;;;5062080;28;20406;-58
2024/03/18 13:27:45;;;;;;;3.05;1.98;;;;;;;;;;5061277;28;20394;-62
2024/03/18 13:30:12;;;;;;;2.00;1.50;;;;;;;;;;5060039;28;20049;-65
2024/03/18 13:32:41;;;;;;;4.40;1.92;;;;;;;;;;5068114;28;20044;-58
2024/03/18 13:35:09;;;;;;;3.28;2.10;;;;;;;;;;5067866;28;20048;-59
2024/03/18 13:37:37;;;;;;;4.68;1.90;;;;;;;;;;5070598;28;20041;-57
2024/03/18 13:40:06;;;;;;;4.68;2.47;;;;;;;;;;5068859;28;20048;-59
2024/03/18 13:42:33;;;;;;;3.10;2.05;;;;;;;;;;5070018;28;20049;-58
2024/03/18 13:45:02;;;;;;;4.95;2.20;;;;;;;;;;5069382;28;20103;-58
2024/03/18 13:47:30;;;;;;;4.93;1.85;;;;;;;;;;5066249;28;20493;-57
2024/03/18 13:49:57;;;;;;;2.72;2.30;;;;;;;;;;5069487;28;20053;-56
2024/03/18 13:52:24;;;;;;;4.90;2.20;;;;;;;;;;5067984;28;20060;-57
2024/03/18 13:54:52;;;;;;;3.25;2.03;;;;;;;;;;5070831;28;20094;-58
2024/03/18 13:57:21;;;;;;;4.35;1.92;;;;;;;;;;5069962;28;20052;-58
2024/03/18 13:59:50;;;;;;;3.75;2.08;;;;;;;;;;5070175;28;20048;-57
2024/03/18 14:02:17;;;;;;;4.65;1.85;;;;;;;;;;5071273;28;20409;-57
2024/03/18 14:04:45;;;;;;;3.40;1.90;;;;;;;;;;5070758;28;20110;-57
2024/03/18 14:07:11;;;;;;;2.10;1.52;;;;;;;;;;5061896;28;20396;-59
2024/03/18 14:09:39;;;;;;;4.07;2.10;;;;;;;;;;5064016;28;20083;-58
2024/03/18 14:12:06;;;;;;;3.50;2.15;;;;;;;;;;5068675;28;20049;-57
2024/03/18 14:14:35;;;;;;;2.45;2.17;;;;;;;;;;5070715;28;20052;-56
2024/03/18 14:17:03;;;;;;;3.53;2.35;;;;;;;;;;5069279;28;20451;-57
2024/03/18 14:19:30;;;;;;;3.83;2.03;;;;;;;;;;5070118;28;20053;-59
2024/03/18 14:21:58;;;;;;;3.72;2.28;;;;;;;;;;5067092;28;20045;-57
2024/03/18 14:24:26;;;;;;;3.22;1.73;;;;;;;;;;5074301;28;20044;-58
2024/03/18 14:26:54;;;;;;;3.05;1.88;;;;;;;;;;5069425;28;20048;-57
2024/03/18 14:29:22;;;;;;;3.90;2.00;;;;;;;;;;5069942;28;20044;-57
2024/03/18 14:31:50;;;;;;;3.20;1.90;;;;;;;;;;5067563;28;20506;-57
2024/03/18 14:34:18;;;;;;;2.63;1.70;;;;;;;;;;5069433;28;20044;-58
2024/03/18 14:36:46;;;;;;;1.60;1.25;;;;;;;;;;5067351;28;20045;-59
2024/03/18 14:39:15;;;;;;;2.42;1.65;;;;;;;;;;5069350;28;20059;-57
2024/03/18 14:41:43;;;;;;;2.25;1.63;;;;;;;;;;5069054;28;20045;-56
2024/03/18 14:44:10;;;;;;;3.58;1.52;;;;;;;;;;5068861;28;20052;-59
2024/03/18 14:46:38;;;;;;;4.03;2.00;;;;;;;;;;5065144;28;20385;-58
2024/03/18 14:49:07;;;;;;;2.30;1.70;;;;;;;;;;5068900;28;20552;-57
2024/03/18 14:51:34;;;;;;;4.32;1.77;;;;;;;;;;5069264;28;20048;-57
2024/03/18 14:54:03;;;;;;;3.08;1.80;;;;;;;;;;5068012;28;20059;-58
2024/03/18 14:56:30;;;;;;;3.78;1.80;;;;;;;;;;5069831;28;20390;-57